createdAt,value
2017-01-02T00:00:59.837Z,0
2017-01-02T00:02:08.809Z,0
2017-01-02T00:03:17.835Z,0
2017-01-02T00:04:26.846Z,0
2017-01-02T00:05:35.871Z,0
2017-01-02T00:06:45.209Z,0
2017-01-02T00:07:54.326Z,0
2017-01-02T00:09:03.377Z,0
2017-01-02T00:10:12.435Z,0
2017-01-02T00:11:21.416Z,0
2017-01-02T00:12:30.466Z,0
2017-01-02T00:13:39.515Z,0
2017-01-02T00:14:48.543Z,0
2017-01-02T00:15:57.956Z,0
2017-01-02T00:17:07.028Z,0
2017-01-02T00:18:16.045Z,0
2017-01-02T00:19:25.016Z,0
2017-01-02T00:20:34.306Z,0
2017-01-02T00:21:43.302Z,0
2017-01-02T00:22:52.384Z,0
2017-01-02T00:24:01.360Z,0
2017-01-02T00:25:10.344Z,0
2017-01-02T00:26:19.321Z,0
2017-01-02T00:27:28.301Z,0
2017-01-02T00:28:37.275Z,0
2017-01-02T00:29:46.252Z,0
2017-01-02T00:30:55.210Z,0
2017-01-02T00:32:04.175Z,0
2017-01-02T00:33:13.157Z,0
2017-01-02T00:34:22.168Z,0
2017-01-02T00:35:31.161Z,0
2017-01-02T00:36:40.146Z,0
2017-01-02T00:37:49.104Z,0
2017-01-02T00:38:58.087Z,0
2017-01-02T00:40:07.059Z,0
2017-01-02T00:41:16.052Z,0
2017-01-02T00:42:25.049Z,0
2017-01-02T00:43:34.017Z,0
2017-01-02T00:44:43.011Z,0
2017-01-02T00:45:51.985Z,0
2017-01-02T00:47:00.955Z,0
2017-01-02T00:48:09.948Z,0
2017-01-02T00:49:18.923Z,0
2017-01-02T00:50:27.943Z,0
2017-01-02T00:51:36.909Z,0
2017-01-02T00:52:45.878Z,0
2017-01-02T00:53:54.857Z,0
2017-01-02T00:55:03.837Z,0
2017-01-02T00:56:12.816Z,0
2017-01-02T00:57:21.799Z,0
2017-01-02T00:58:30.837Z,0
2017-01-02T00:59:39.804Z,0
2017-01-02T01:00:48.797Z,0
2017-01-02T01:01:57.787Z,0
2017-01-02T01:03:06.756Z,0
2017-01-02T01:04:15.734Z,0
2017-01-02T01:05:24.714Z,0
2017-01-02T01:06:33.695Z,0
2017-01-02T01:07:42.675Z,0
2017-01-02T01:08:51.648Z,0
2017-01-02T01:10:00.637Z,0
2017-01-02T01:11:10.370Z,0
2017-01-02T01:12:19.341Z,0
2017-01-02T01:13:28.323Z,0
2017-01-02T01:14:37.313Z,0
2017-01-02T01:15:46.289Z,0
2017-01-02T01:16:55.265Z,0
2017-01-02T01:18:04.248Z,0
2017-01-02T01:19:13.254Z,0
2017-01-02T01:20:22.234Z,0
2017-01-02T01:21:31.217Z,0
2017-01-02T01:22:40.196Z,0
2017-01-02T01:23:49.167Z,0
2017-01-02T01:24:58.146Z,0
2017-01-02T01:26:07.120Z,0
2017-01-02T01:27:16.096Z,0
2017-01-02T01:28:25.099Z,0
2017-01-02T01:29:34.078Z,0
2017-01-02T01:30:43.057Z,0
2017-01-02T01:31:52.044Z,0
2017-01-02T01:33:01.022Z,0
2017-01-02T01:34:09.998Z,0
2017-01-02T01:35:18.965Z,0
2017-01-02T01:36:27.953Z,0
2017-01-02T01:37:36.926Z,0
2017-01-02T01:38:45.892Z,0
2017-01-02T01:39:54.871Z,0
2017-01-02T01:41:03.857Z,0
2017-01-02T01:42:13.650Z,0
2017-01-02T01:43:22.628Z,0
2017-01-02T01:44:31.760Z,0
2017-01-02T01:45:40.737Z,0
2017-01-02T01:46:49.702Z,0
2017-01-02T01:47:58.678Z,0
2017-01-02T01:49:07.661Z,0
2017-01-02T01:50:16.691Z,0
2017-01-02T01:51:25.688Z,0
2017-01-02T01:52:34.686Z,0
2017-01-02T01:53:43.658Z,0
2017-01-02T01:54:52.619Z,0
2017-01-02T01:56:01.617Z,0
2017-01-02T01:57:10.612Z,0
2017-01-02T01:58:19.598Z,0
2017-01-02T01:59:28.574Z,0
2017-01-02T02:00:37.547Z,0
2017-01-02T02:01:46.527Z,0
2017-01-02T02:02:55.511Z,0
2017-01-02T02:04:04.476Z,0
2017-01-02T02:05:13.460Z,0
2017-01-02T02:06:22.438Z,0
2017-01-02T02:07:31.402Z,0
2017-01-02T02:08:40.371Z,0
2017-01-02T02:09:49.358Z,0
2017-01-02T02:10:58.331Z,0
2017-01-02T02:12:07.308Z,0
2017-01-02T02:13:16.284Z,0
2017-01-02T02:14:25.258Z,0
2017-01-02T02:15:34.242Z,0
2017-01-02T02:16:43.222Z,0
2017-01-02T02:17:52.202Z,0
2017-01-02T02:19:01.186Z,0
2017-01-02T02:20:10.172Z,0
2017-01-02T02:21:19.133Z,0
2017-01-02T02:22:28.115Z,0
2017-01-02T02:23:37.088Z,0
2017-01-02T02:24:46.064Z,0
2017-01-02T02:25:55.035Z,0
2017-01-02T02:27:04.007Z,0
2017-01-02T02:28:13.029Z,0
2017-01-02T02:29:22.111Z,0
2017-01-02T02:30:31.139Z,0
2017-01-02T02:31:40.121Z,0
2017-01-02T02:32:49.108Z,0
2017-01-02T02:33:58.094Z,0
2017-01-02T02:35:07.059Z,0
2017-01-02T02:36:16.034Z,0
2017-01-02T02:37:25.011Z,0
2017-01-02T02:38:34.025Z,0
2017-01-02T02:39:43.003Z,0
2017-01-02T02:40:51.975Z,0
2017-01-02T02:42:00.947Z,0
2017-01-02T02:43:09.909Z,0
2017-01-02T02:44:18.898Z,0
2017-01-02T02:45:27.892Z,0
2017-01-02T02:46:36.874Z,0
2017-01-02T02:47:45.863Z,0
2017-01-02T02:48:54.833Z,0
2017-01-02T02:50:03.803Z,0
2017-01-02T02:51:12.809Z,0
2017-01-02T02:52:21.776Z,0
2017-01-02T02:53:30.757Z,0
2017-01-02T02:54:39.726Z,0
2017-01-02T02:55:48.720Z,0
2017-01-02T02:56:57.679Z,0
2017-01-02T02:58:06.663Z,0
2017-01-02T02:59:15.654Z,0
2017-01-02T03:00:24.620Z,0
2017-01-02T03:01:33.594Z,0
2017-01-02T03:02:42.572Z,0
2017-01-02T03:03:51.550Z,0
2017-01-02T03:05:00.575Z,0
2017-01-02T03:06:09.564Z,0
2017-01-02T03:07:18.538Z,0
2017-01-02T03:08:27.503Z,0
2017-01-02T03:09:36.493Z,0
2017-01-02T03:10:45.476Z,0
2017-01-02T03:11:54.458Z,0
2017-01-02T03:13:03.439Z,0
2017-01-02T03:14:12.405Z,0
2017-01-02T03:15:21.377Z,0
2017-01-02T03:16:30.353Z,0
2017-01-02T03:17:39.316Z,0
2017-01-02T03:18:48.288Z,0
2017-01-02T03:19:57.263Z,0
2017-01-02T03:21:06.263Z,0
2017-01-02T03:22:15.234Z,0
2017-01-02T03:23:24.227Z,0
2017-01-02T03:24:33.198Z,0
2017-01-02T03:25:42.181Z,0
2017-01-02T03:26:51.155Z,0
2017-01-02T03:28:00.126Z,0
2017-01-02T03:29:09.119Z,0
2017-01-02T03:30:18.105Z,0
2017-01-02T03:31:27.101Z,0
2017-01-02T03:32:36.080Z,0
2017-01-02T03:33:45.065Z,0
2017-01-02T03:34:54.037Z,0
2017-01-02T03:36:02.998Z,0
2017-01-02T03:37:11.982Z,0
2017-01-02T03:38:20.965Z,0
2017-01-02T03:39:29.942Z,0
2017-01-02T03:40:38.917Z,0
2017-01-02T03:41:47.930Z,0
2017-01-02T03:42:56.895Z,0
2017-01-02T03:44:05.883Z,0
2017-01-02T03:45:14.856Z,0
2017-01-02T03:46:23.828Z,0
2017-01-02T03:47:32.808Z,0
2017-01-02T03:48:41.785Z,0
2017-01-02T03:49:50.748Z,0
2017-01-02T03:50:59.728Z,0
2017-01-02T03:52:08.736Z,0
2017-01-02T03:53:17.700Z,0
2017-01-02T03:54:26.685Z,0
2017-01-02T03:55:35.674Z,0
2017-01-02T03:56:44.659Z,0
2017-01-02T03:57:53.627Z,0
2017-01-02T03:59:02.608Z,0
2017-01-02T04:00:11.584Z,0
2017-01-02T04:01:20.559Z,0
2017-01-02T04:02:29.521Z,0
2017-01-02T04:03:38.501Z,0
2017-01-02T04:04:47.482Z,0
2017-01-02T04:05:56.452Z,0
2017-01-02T04:07:05.427Z,0
2017-01-02T04:08:14.398Z,0
2017-01-02T04:09:23.384Z,0
2017-01-02T04:10:32.355Z,0
2017-01-02T04:11:41.358Z,0
2017-01-02T04:12:50.347Z,0
2017-01-02T04:13:59.324Z,0
2017-01-02T04:15:08.297Z,0
2017-01-02T04:16:17.300Z,0
2017-01-02T04:17:26.275Z,0
2017-01-02T04:18:35.247Z,0
2017-01-02T04:19:44.293Z,0
2017-01-02T04:20:53.261Z,0
2017-01-02T04:22:02.225Z,0
2017-01-02T04:23:11.201Z,0
2017-01-02T04:24:20.170Z,0
2017-01-02T04:25:29.156Z,0
2017-01-02T04:26:38.126Z,0
2017-01-02T04:27:47.098Z,0
2017-01-02T04:28:56.071Z,0
2017-01-02T04:30:05.040Z,0
2017-01-02T04:31:14.030Z,0
2017-01-02T04:32:23.007Z,0
2017-01-02T04:33:31.977Z,0
2017-01-02T04:34:40.944Z,0
2017-01-02T04:35:49.925Z,0
2017-01-02T04:36:58.910Z,0
2017-01-02T04:38:07.874Z,0
2017-01-02T04:39:16.874Z,0
2017-01-02T04:40:25.870Z,0
2017-01-02T04:41:34.869Z,0
2017-01-02T04:42:43.856Z,0
2017-01-02T04:43:52.828Z,0
2017-01-02T04:45:01.802Z,0
2017-01-02T04:46:10.791Z,0
2017-01-02T04:47:19.769Z,0
2017-01-02T04:48:28.726Z,0
2017-01-02T04:49:37.703Z,0
2017-01-02T04:50:46.681Z,0
2017-01-02T04:51:55.667Z,0
2017-01-02T04:53:04.629Z,0
2017-01-02T04:54:13.614Z,0
2017-01-02T04:55:22.574Z,0
2017-01-02T04:56:31.554Z,0
2017-01-02T04:57:40.526Z,0
2017-01-02T04:58:49.513Z,0
2017-01-02T04:59:58.501Z,0
2017-01-02T05:01:07.466Z,0
2017-01-02T05:02:16.463Z,0
2017-01-02T05:03:25.437Z,0
2017-01-02T05:04:34.416Z,0
2017-01-02T05:05:43.436Z,0
2017-01-02T05:06:52.406Z,0
2017-01-02T05:08:01.400Z,0
2017-01-02T05:09:10.375Z,0
2017-01-02T05:10:19.350Z,0
2017-01-02T05:11:28.338Z,0
2017-01-02T05:12:37.331Z,0
2017-01-02T05:13:46.328Z,0
2017-01-02T05:14:55.305Z,0
2017-01-02T05:16:04.271Z,0
2017-01-02T05:17:13.234Z,0
2017-01-02T05:18:22.205Z,0
2017-01-02T05:19:31.186Z,0
2017-01-02T05:20:40.168Z,0
2017-01-02T05:21:49.162Z,0
2017-01-02T05:22:58.142Z,0
2017-01-02T05:24:07.105Z,0
2017-01-02T05:25:16.117Z,0
2017-01-02T05:26:25.099Z,0
2017-01-02T05:27:34.071Z,0
2017-01-02T05:28:43.036Z,0
2017-01-02T05:29:52.033Z,0
2017-01-02T05:31:00.999Z,0
2017-01-02T05:32:09.984Z,0
2017-01-02T05:33:18.975Z,0
2017-01-02T05:34:27.951Z,0
2017-01-02T05:35:36.909Z,0
2017-01-02T05:36:45.898Z,0
2017-01-02T05:37:54.865Z,0
2017-01-02T05:39:03.858Z,0
2017-01-02T05:40:12.832Z,0
2017-01-02T05:41:21.811Z,0
2017-01-02T05:42:30.787Z,0
2017-01-02T05:43:39.751Z,0
2017-01-02T05:44:48.735Z,0
2017-01-02T05:45:57.705Z,0
2017-01-02T05:47:07.106Z,0
2017-01-02T05:48:16.076Z,0
2017-01-02T05:49:25.084Z,0
2017-01-02T05:50:34.048Z,0
2017-01-02T05:51:43.029Z,0
2017-01-02T05:52:52.003Z,0
2017-01-02T05:54:00.971Z,0
2017-01-02T05:55:09.946Z,0
2017-01-02T05:56:18.915Z,0
2017-01-02T05:57:27.887Z,0
2017-01-02T05:58:36.859Z,0
2017-01-02T05:59:45.843Z,0
2017-01-02T06:00:54.804Z,0
2017-01-02T06:02:03.778Z,0
2017-01-02T06:03:12.760Z,0
2017-01-02T06:04:21.745Z,0
2017-01-02T06:05:30.720Z,0
2017-01-02T06:06:39.697Z,0
2017-01-02T06:07:48.670Z,0
2017-01-02T06:08:57.649Z,0
2017-01-02T06:10:06.629Z,0
2017-01-02T06:11:15.600Z,0
2017-01-02T06:12:24.591Z,0
2017-01-02T06:13:33.574Z,0
2017-01-02T06:14:42.536Z,0
2017-01-02T06:15:51.524Z,0
2017-01-02T06:17:00.495Z,0
2017-01-02T06:18:09.491Z,0
2017-01-02T06:19:18.456Z,0
2017-01-02T06:20:27.434Z,0
2017-01-02T06:21:36.405Z,0
2017-01-02T06:22:45.376Z,0
2017-01-02T06:23:54.348Z,0
2017-01-02T06:25:03.311Z,0
2017-01-02T06:26:12.286Z,0
2017-01-02T06:27:21.269Z,0
2017-01-02T06:28:30.232Z,0
2017-01-02T06:29:39.211Z,0
2017-01-02T06:30:48.191Z,0
2017-01-02T06:31:57.180Z,0
2017-01-02T06:33:06.148Z,0
2017-01-02T06:34:15.137Z,0
2017-01-02T06:35:24.122Z,0
2017-01-02T06:36:33.097Z,0
2017-01-02T06:37:42.172Z,0
2017-01-02T06:38:51.148Z,0
2017-01-02T06:40:00.143Z,0
2017-01-02T06:41:09.128Z,0
2017-01-02T06:42:18.110Z,0
2017-01-02T06:43:27.081Z,0
2017-01-02T06:44:36.067Z,0
2017-01-02T06:45:45.024Z,0
2017-01-02T06:46:54.001Z,0
2017-01-02T06:48:02.996Z,0
2017-01-02T06:49:12.038Z,0
2017-01-02T06:50:21.050Z,0
2017-01-02T06:51:30.051Z,0
2017-01-02T06:52:39.012Z,0
2017-01-02T06:53:47.982Z,0
2017-01-02T06:54:56.965Z,0
2017-01-02T06:56:05.942Z,0
2017-01-02T06:57:14.908Z,0
2017-01-02T06:58:23.896Z,0
2017-01-02T06:59:32.892Z,0
2017-01-02T07:00:41.870Z,0
2017-01-02T07:01:50.846Z,0
2017-01-02T07:02:59.832Z,0
2017-01-02T07:04:08.825Z,0
2017-01-02T07:05:17.804Z,0
2017-01-02T07:06:26.780Z,0
2017-01-02T07:07:35.759Z,0
2017-01-02T07:08:44.742Z,0
2017-01-02T07:09:53.714Z,0
2017-01-02T07:11:02.701Z,0
2017-01-02T07:12:11.714Z,0
2017-01-02T07:13:20.696Z,0
2017-01-02T07:14:29.656Z,4
2017-01-02T07:15:38.633Z,4
2017-01-02T07:16:47.670Z,4
2017-01-02T07:17:56.662Z,4
2017-01-02T07:19:05.630Z,4
2017-01-02T07:20:14.673Z,4
2017-01-02T07:21:23.639Z,0
2017-01-02T07:22:32.615Z,0
2017-01-02T07:23:41.603Z,4
2017-01-02T07:24:50.571Z,4
2017-01-02T07:25:59.529Z,4
2017-01-02T07:27:08.520Z,4
2017-01-02T07:28:17.483Z,4
2017-01-02T07:29:26.473Z,4
2017-01-02T07:30:35.457Z,4
2017-01-02T07:31:44.435Z,8
2017-01-02T07:32:53.406Z,4
2017-01-02T07:34:02.382Z,4
2017-01-02T07:35:11.356Z,8
2017-01-02T07:36:20.346Z,8
2017-01-02T07:37:29.345Z,8
2017-01-02T07:38:38.314Z,8
2017-01-02T07:39:47.309Z,8
2017-01-02T07:40:56.281Z,12
2017-01-02T07:42:05.249Z,12
2017-01-02T07:43:14.221Z,12
2017-01-02T07:44:23.186Z,8
2017-01-02T07:45:32.165Z,16
2017-01-02T07:46:41.147Z,16
2017-01-02T07:47:50.126Z,12
2017-01-02T07:48:59.098Z,16
2017-01-02T07:50:08.099Z,16
2017-01-02T07:51:17.064Z,16
2017-01-02T07:52:26.043Z,16
2017-01-02T07:53:35.036Z,16
2017-01-02T07:54:44.003Z,16
2017-01-02T07:55:52.978Z,16
2017-01-02T07:57:01.963Z,20
2017-01-02T07:58:10.929Z,24
2017-01-02T07:59:19.911Z,24
2017-01-02T08:00:28.917Z,20
2017-01-02T08:01:37.902Z,20
2017-01-02T08:02:46.896Z,20
2017-01-02T08:03:55.874Z,20
2017-01-02T08:05:04.866Z,20
2017-01-02T08:06:13.851Z,16
2017-01-02T08:07:22.831Z,20
2017-01-02T08:08:31.800Z,20
2017-01-02T08:09:40.779Z,24
2017-01-02T08:10:49.756Z,24
2017-01-02T08:11:58.736Z,24
2017-01-02T08:13:07.704Z,20
2017-01-02T08:14:16.679Z,20
2017-01-02T08:15:25.646Z,24
2017-01-02T08:16:34.626Z,24
2017-01-02T08:17:43.607Z,24
2017-01-02T08:18:52.571Z,24
2017-01-02T08:20:01.549Z,24
2017-01-02T08:21:10.515Z,24
2017-01-02T08:22:19.499Z,20
2017-01-02T08:23:28.517Z,24
2017-01-02T08:24:37.518Z,24
2017-01-02T08:25:46.687Z,24
2017-01-02T08:26:55.693Z,24
2017-01-02T08:28:04.675Z,20
2017-01-02T08:29:13.749Z,20
2017-01-02T08:30:22.809Z,20
2017-01-02T08:31:31.799Z,20
2017-01-02T08:32:41.029Z,16
2017-01-02T08:33:50.093Z,16
2017-01-02T08:34:59.104Z,16
2017-01-02T08:36:08.125Z,16
2017-01-02T08:37:17.282Z,16
2017-01-02T08:38:26.262Z,16
2017-01-02T08:39:35.244Z,12
2017-01-02T08:40:44.247Z,16
2017-01-02T08:41:53.326Z,16
2017-01-02T08:43:02.383Z,20
2017-01-02T08:44:11.427Z,24
2017-01-02T08:45:20.592Z,20
2017-01-02T08:46:29.642Z,20
2017-01-02T08:47:38.988Z,28
2017-01-02T08:48:48.030Z,24
2017-01-02T08:49:57.114Z,24
2017-01-02T08:51:06.125Z,24
2017-01-02T08:52:15.214Z,24
2017-01-02T08:53:24.180Z,28
2017-01-02T08:54:33.235Z,20
2017-01-02T08:55:42.208Z,24
2017-01-02T08:56:51.205Z,24
2017-01-02T08:58:00.170Z,24
2017-01-02T08:59:09.157Z,24
2017-01-02T09:00:18.398Z,28
2017-01-02T09:01:27.802Z,32
2017-01-02T09:02:36.820Z,28
2017-01-02T09:03:45.799Z,28
2017-01-02T09:04:54.765Z,28
2017-01-02T09:06:03.741Z,36
2017-01-02T09:07:12.744Z,32
2017-01-02T09:08:21.709Z,20
2017-01-02T09:09:30.709Z,20
2017-01-02T09:10:39.746Z,20
2017-01-02T09:11:49.647Z,16
2017-01-02T09:12:59.028Z,20
2017-01-02T09:14:08.012Z,24
2017-01-02T09:15:17.272Z,36
2017-01-02T09:16:26.854Z,44
2017-01-02T09:17:36.452Z,40
2017-01-02T09:18:45.630Z,52
2017-01-02T09:19:54.619Z,48
2017-01-02T09:21:03.636Z,40
2017-01-02T09:22:12.672Z,40
2017-01-02T09:23:21.648Z,44
2017-01-02T09:24:30.681Z,40
2017-01-02T09:25:40.356Z,48
2017-01-02T09:26:49.345Z,48
2017-01-02T09:27:58.375Z,48
2017-01-02T09:29:07.560Z,48
2017-01-02T09:30:16.549Z,48
2017-01-02T09:31:25.564Z,48
2017-01-02T09:32:34.550Z,52
2017-01-02T09:33:43.602Z,44
2017-01-02T09:34:52.580Z,44
2017-01-02T09:36:01.589Z,44
2017-01-02T09:37:10.566Z,40
2017-01-02T09:38:19.547Z,48
2017-01-02T09:39:28.536Z,52
2017-01-02T09:40:37.516Z,52
2017-01-02T09:41:46.483Z,52
2017-01-02T09:42:55.480Z,60
2017-01-02T09:44:04.464Z,56
2017-01-02T09:45:13.496Z,64
2017-01-02T09:46:22.478Z,72
2017-01-02T09:47:31.477Z,88
2017-01-02T09:48:40.478Z,76
2017-01-02T09:49:49.448Z,104
2017-01-02T09:50:58.420Z,104
2017-01-02T09:52:07.400Z,96
2017-01-02T09:53:16.534Z,104
2017-01-02T09:54:25.552Z,120
2017-01-02T09:55:34.573Z,124
2017-01-02T09:56:43.569Z,168
2017-01-02T09:57:52.554Z,184
2017-01-02T09:59:03.001Z,172
2017-01-02T10:00:12.070Z,200
2017-01-02T10:01:22.244Z,216
2017-01-02T10:02:32.688Z,164
2017-01-02T10:03:41.776Z,204
2017-01-02T10:04:51.695Z,260
2017-01-02T10:06:01.084Z,272
2017-01-02T10:07:10.061Z,312
2017-01-02T10:08:19.046Z,436
2017-01-02T10:09:28.010Z,484
2017-01-02T10:10:36.990Z,532
2017-01-02T10:11:46.003Z,312
2017-01-02T10:12:55.293Z,484
2017-01-02T10:14:05.774Z,348
2017-01-02T10:15:15.007Z,228
2017-01-02T10:16:24.647Z,232
2017-01-02T10:17:34.115Z,260
2017-01-02T10:18:43.660Z,216
2017-01-02T10:19:53.109Z,184
2017-01-02T10:21:02.095Z,188
2017-01-02T10:22:11.076Z,152
2017-01-02T10:23:21.399Z,176
2017-01-02T10:24:30.369Z,156
2017-01-02T10:25:39.625Z,148
2017-01-02T10:26:48.600Z,192
2017-01-02T10:27:57.580Z,368
2017-01-02T10:29:06.582Z,448
2017-01-02T10:30:15.550Z,348
2017-01-02T10:31:24.527Z,252
2017-01-02T10:32:33.525Z,156
2017-01-02T10:33:42.539Z,108
2017-01-02T10:34:51.518Z,104
2017-01-02T10:36:00.500Z,120
2017-01-02T10:37:09.471Z,124
2017-01-02T10:38:18.440Z,136
2017-01-02T10:39:27.420Z,200
2017-01-02T10:40:36.400Z,236
2017-01-02T10:41:45.377Z,284
2017-01-02T10:42:54.355Z,228
2017-01-02T10:44:03.332Z,260
2017-01-02T10:45:12.295Z,248
2017-01-02T10:46:21.277Z,244
2017-01-02T10:47:30.261Z,244
2017-01-02T10:48:39.245Z,200
2017-01-02T10:49:48.223Z,224
2017-01-02T10:50:57.225Z,296
2017-01-02T10:52:06.218Z,232
2017-01-02T10:53:15.269Z,240
2017-01-02T10:54:24.248Z,204
2017-01-02T10:55:33.215Z,176
2017-01-02T10:56:42.184Z,220
2017-01-02T10:57:51.171Z,320
2017-01-02T10:59:00.528Z,288
2017-01-02T11:00:09.834Z,268
2017-01-02T11:01:19.754Z,240
2017-01-02T11:02:28.726Z,172
2017-01-02T11:03:37.708Z,132
2017-01-02T11:04:46.689Z,124
2017-01-02T11:05:55.672Z,112
2017-01-02T11:07:04.639Z,144
2017-01-02T11:08:13.700Z,128
2017-01-02T11:09:22.678Z,132
2017-01-02T11:10:31.674Z,184
2017-01-02T11:11:40.646Z,200
2017-01-02T11:12:49.628Z,224
2017-01-02T11:13:58.601Z,244
2017-01-02T11:15:07.591Z,276
2017-01-02T11:16:16.591Z,280
2017-01-02T11:17:25.575Z,260
2017-01-02T11:18:34.555Z,196
2017-01-02T11:19:43.528Z,240
2017-01-02T11:20:52.502Z,248
2017-01-02T11:22:02.360Z,200
2017-01-02T11:23:11.886Z,184
2017-01-02T11:24:20.901Z,232
2017-01-02T11:25:29.873Z,224
2017-01-02T11:26:38.847Z,212
2017-01-02T11:27:47.821Z,208
2017-01-02T11:28:56.827Z,188
2017-01-02T11:30:05.802Z,220
2017-01-02T11:31:14.767Z,248
2017-01-02T11:32:23.757Z,240
2017-01-02T11:33:32.741Z,240
2017-01-02T11:34:41.713Z,244
2017-01-02T11:35:50.682Z,188
2017-01-02T11:37:00.316Z,144
2017-01-02T11:38:09.740Z,120
2017-01-02T11:39:18.811Z,100
2017-01-02T11:40:27.853Z,92
2017-01-02T11:41:36.834Z,84
2017-01-02T11:42:45.802Z,112
2017-01-02T11:43:54.780Z,140
2017-01-02T11:45:05.362Z,108
2017-01-02T11:46:14.765Z,88
2017-01-02T11:47:23.802Z,96
2017-01-02T11:48:32.782Z,76
2017-01-02T11:49:41.761Z,64
2017-01-02T11:50:50.737Z,72
2017-01-02T11:51:59.715Z,84
2017-01-02T11:53:08.688Z,124
2017-01-02T11:54:17.664Z,220
2017-01-02T11:55:26.638Z,260
2017-01-02T11:56:35.604Z,292
2017-01-02T11:57:45.075Z,224
2017-01-02T11:58:54.098Z,204
2017-01-02T12:00:03.074Z,144
2017-01-02T12:01:12.056Z,196
2017-01-02T12:02:21.091Z,252
2017-01-02T12:03:30.208Z,260
2017-01-02T12:04:40.543Z,320
2017-01-02T12:05:49.528Z,288
2017-01-02T12:06:58.544Z,272
2017-01-02T12:08:07.513Z,264
2017-01-02T12:09:16.495Z,300
2017-01-02T12:10:25.484Z,184
2017-01-02T12:11:34.575Z,156
2017-01-02T12:12:43.930Z,156
2017-01-02T12:13:52.989Z,224
2017-01-02T12:15:01.992Z,264
2017-01-02T12:16:10.970Z,292
2017-01-02T12:17:20.109Z,256
2017-01-02T12:18:29.112Z,192
2017-01-02T12:19:38.081Z,144
2017-01-02T12:20:47.168Z,300
2017-01-02T12:21:56.158Z,332
2017-01-02T12:23:05.148Z,312
2017-01-02T12:24:14.123Z,312
2017-01-02T12:25:23.093Z,296
2017-01-02T12:26:32.125Z,264
2017-01-02T12:27:41.137Z,272
2017-01-02T12:28:50.121Z,288
2017-01-02T12:29:59.111Z,272
2017-01-02T12:31:08.508Z,256
2017-01-02T12:32:17.470Z,220
2017-01-02T12:33:26.468Z,168
2017-01-02T12:34:36.943Z,148
2017-01-02T12:35:45.927Z,240
2017-01-02T12:36:55.109Z,240
2017-01-02T12:38:04.095Z,300
2017-01-02T12:39:13.490Z,312
2017-01-02T12:40:22.996Z,316
2017-01-02T12:41:32.874Z,308
2017-01-02T12:42:41.973Z,276
2017-01-02T12:43:50.949Z,288
2017-01-02T12:44:59.945Z,280
2017-01-02T12:46:08.928Z,264
2017-01-02T12:47:17.947Z,236
2017-01-02T12:48:27.077Z,204
2017-01-02T12:49:36.168Z,196
2017-01-02T12:50:45.806Z,200
2017-01-02T12:51:56.364Z,192
2017-01-02T12:53:06.017Z,192
2017-01-02T12:54:15.330Z,180
2017-01-02T12:55:25.622Z,164
2017-01-02T12:56:34.723Z,164
2017-01-02T12:57:43.856Z,168
2017-01-02T12:58:52.968Z,144
2017-01-02T13:00:01.943Z,120
2017-01-02T13:01:10.986Z,128
2017-01-02T13:02:20.081Z,136
2017-01-02T13:03:29.111Z,128
2017-01-02T13:04:38.096Z,124
2017-01-02T13:05:47.129Z,128
2017-01-02T13:06:56.102Z,116
2017-01-02T13:08:05.084Z,116
2017-01-02T13:09:14.058Z,116
2017-01-02T13:10:23.167Z,116
2017-01-02T13:11:32.328Z,116
2017-01-02T13:12:42.013Z,108
2017-01-02T13:13:51.450Z,96
2017-01-02T13:15:00.486Z,76
2017-01-02T13:16:09.460Z,76
2017-01-02T13:17:18.961Z,96
2017-01-02T13:18:27.995Z,124
2017-01-02T13:19:36.985Z,128
2017-01-02T13:20:45.994Z,116
2017-01-02T13:21:55.181Z,112
2017-01-02T13:23:04.162Z,116
2017-01-02T13:24:13.184Z,116
2017-01-02T13:25:22.165Z,112
2017-01-02T13:26:31.150Z,112
2017-01-02T13:27:40.128Z,100
2017-01-02T13:28:49.118Z,96
2017-01-02T13:29:58.090Z,88
2017-01-02T13:31:07.078Z,84
2017-01-02T13:32:16.195Z,88
2017-01-02T13:33:25.596Z,80
2017-01-02T13:34:34.565Z,88
2017-01-02T13:35:43.557Z,96
2017-01-02T13:36:52.530Z,96
2017-01-02T13:38:01.550Z,76
2017-01-02T13:39:10.556Z,88
2017-01-02T13:40:19.548Z,64
2017-01-02T13:41:28.732Z,92
2017-01-02T13:42:37.877Z,100
2017-01-02T13:43:46.888Z,104
2017-01-02T13:44:55.894Z,124
2017-01-02T13:46:04.880Z,104
2017-01-02T13:47:13.848Z,92
2017-01-02T13:48:22.867Z,96
2017-01-02T13:49:31.879Z,88
2017-01-02T13:50:40.871Z,96
2017-01-02T13:51:49.859Z,100
2017-01-02T13:52:58.838Z,88
2017-01-02T13:54:07.823Z,88
2017-01-02T13:55:16.854Z,72
2017-01-02T13:56:25.851Z,104
2017-01-02T13:57:34.835Z,120
2017-01-02T13:58:43.808Z,92
2017-01-02T13:59:52.788Z,96
2017-01-02T14:01:01.758Z,76
2017-01-02T14:02:10.731Z,68
2017-01-02T14:03:19.710Z,100
2017-01-02T14:04:28.684Z,80
2017-01-02T14:05:37.666Z,72
2017-01-02T14:06:46.648Z,60
2017-01-02T14:07:55.636Z,60
2017-01-02T14:09:04.619Z,56
2017-01-02T14:10:13.608Z,52
2017-01-02T14:11:22.606Z,52
2017-01-02T14:12:31.587Z,48
2017-01-02T14:13:40.560Z,40
2017-01-02T14:14:49.569Z,36
2017-01-02T14:15:58.543Z,28
2017-01-02T14:17:07.524Z,24
2017-01-02T14:18:16.513Z,20
2017-01-02T14:19:25.558Z,16
2017-01-02T14:20:34.575Z,16
2017-01-02T14:21:43.609Z,16
2017-01-02T14:22:52.581Z,28
2017-01-02T14:24:01.571Z,44
2017-01-02T14:25:10.546Z,44
2017-01-02T14:26:19.515Z,36
2017-01-02T14:27:28.486Z,32
2017-01-02T14:28:37.470Z,24
2017-01-02T14:29:46.437Z,24
2017-01-02T14:30:55.415Z,28
2017-01-02T14:32:05.115Z,40
2017-01-02T14:33:14.539Z,44
2017-01-02T14:34:23.507Z,44
2017-01-02T14:35:33.277Z,44
2017-01-02T14:36:42.250Z,40
2017-01-02T14:37:51.261Z,40
2017-01-02T14:39:00.235Z,40
2017-01-02T14:40:09.218Z,36
2017-01-02T14:41:18.229Z,32
2017-01-02T14:42:27.205Z,28
2017-01-02T14:43:36.186Z,28
2017-01-02T14:44:45.168Z,24
2017-01-02T14:45:54.151Z,24
2017-01-02T14:47:03.138Z,24
2017-01-02T14:48:12.111Z,24
2017-01-02T14:49:21.097Z,20
2017-01-02T14:50:30.079Z,20
2017-01-02T14:51:39.074Z,20
2017-01-02T14:52:48.059Z,16
2017-01-02T14:53:57.046Z,16
2017-01-02T14:55:06.017Z,12
2017-01-02T14:56:15.011Z,16
2017-01-02T14:57:23.985Z,12
2017-01-02T14:58:32.963Z,12
2017-01-02T14:59:41.945Z,12
2017-01-02T15:00:51.197Z,12
2017-01-02T15:02:00.443Z,12
2017-01-02T15:03:09.451Z,12
2017-01-02T15:04:18.997Z,8
2017-01-02T15:05:27.979Z,8
2017-01-02T15:06:36.958Z,12
2017-01-02T15:07:45.930Z,8
2017-01-02T15:08:54.903Z,8
2017-01-02T15:10:03.877Z,4
2017-01-02T15:11:12.858Z,4
2017-01-02T15:12:21.825Z,4
2017-01-02T15:13:30.794Z,0
2017-01-02T15:14:40.630Z,0
2017-01-02T15:15:49.620Z,0
2017-01-02T15:16:58.622Z,4
2017-01-02T15:18:07.740Z,4
2017-01-02T15:19:17.514Z,4
2017-01-02T15:20:26.520Z,4
2017-01-02T15:21:35.521Z,4
2017-01-02T15:22:44.485Z,0
2017-01-02T15:23:53.483Z,0
2017-01-02T15:25:02.462Z,0
2017-01-02T15:26:11.746Z,0
2017-01-02T15:27:21.037Z,0
2017-01-02T15:28:30.431Z,0
2017-01-02T15:29:40.360Z,0
2017-01-02T15:30:51.030Z,0
2017-01-02T15:32:00.036Z,0
2017-01-02T15:33:09.173Z,0
2017-01-02T15:34:18.498Z,0
2017-01-02T15:35:27.512Z,4
2017-01-02T15:36:36.654Z,0
2017-01-02T15:37:45.647Z,4
2017-01-02T15:38:54.691Z,4
2017-01-02T15:40:03.713Z,4
2017-01-02T15:41:12.731Z,4
2017-01-02T15:42:21.793Z,4
2017-01-02T15:43:30.769Z,0
2017-01-02T15:44:39.756Z,0
2017-01-02T15:45:48.759Z,0
2017-01-02T15:46:57.844Z,0
2017-01-02T15:48:06.860Z,0
2017-01-02T15:49:16.300Z,0
2017-01-02T15:50:25.297Z,0
2017-01-02T15:51:34.294Z,4
2017-01-02T15:52:43.356Z,0
2017-01-02T15:53:52.415Z,0
2017-01-02T15:55:01.407Z,0
2017-01-02T15:56:10.871Z,0
2017-01-02T15:57:20.097Z,0
2017-01-02T15:58:29.222Z,0
2017-01-02T15:59:38.730Z,0
2017-01-02T16:00:47.735Z,0
2017-01-02T16:01:56.852Z,0
2017-01-02T16:03:05.843Z,4
2017-01-02T16:04:14.896Z,4
2017-01-02T16:05:24.068Z,4
2017-01-02T16:06:33.055Z,0
2017-01-02T16:07:42.027Z,0
2017-01-02T16:08:51.016Z,0
2017-01-02T16:10:00.005Z,0
2017-01-02T16:11:08.984Z,0
2017-01-02T16:12:17.962Z,0
2017-01-02T16:13:26.928Z,0
2017-01-02T16:14:35.917Z,0
2017-01-02T16:15:45.007Z,0
2017-01-02T16:16:54.100Z,0
2017-01-02T16:18:03.125Z,0
2017-01-02T16:19:12.276Z,0
2017-01-02T16:20:21.254Z,0
2017-01-02T16:21:30.331Z,0
2017-01-02T16:22:39.325Z,0
2017-01-02T16:23:48.304Z,0
2017-01-02T16:24:57.285Z,0
2017-01-02T16:26:06.273Z,0
2017-01-02T16:27:15.264Z,0
2017-01-02T16:28:24.258Z,0
2017-01-02T16:29:33.324Z,0
2017-01-02T16:30:42.301Z,0
2017-01-02T16:31:51.308Z,0
2017-01-02T16:33:00.301Z,0
2017-01-02T16:34:09.292Z,0
2017-01-02T16:35:18.284Z,0
2017-01-02T16:36:27.266Z,0
2017-01-02T16:37:36.239Z,0